createdAt,value
2022-08-22T00:00:13.786Z,0.93
2022-08-22T00:03:03.565Z,1.20
2022-08-22T00:05:44.515Z,0.87
2022-08-22T00:08:18.971Z,1.00
2022-08-22T00:10:55.171Z,0.80
2022-08-22T00:13:27.204Z,1.20
2022-08-22T00:16:03.009Z,1.20
2022-08-22T00:18:37.064Z,1.10
2022-08-22T00:21:10.562Z,1.00
2022-08-22T00:23:41.842Z,1.10
2022-08-22T00:26:17.610Z,1.40
2022-08-22T00:28:48.510Z,1.00
2022-08-22T00:31:25.529Z,1.00
2022-08-22T00:33:57.495Z,1.20
2022-08-22T00:36:33.812Z,1.33
2022-08-22T00:39:09.666Z,0.87
2022-08-22T00:42:03.885Z,1.17
2022-08-22T00:44:42.029Z,1.33
2022-08-22T00:47:36.143Z,1.03
2022-08-22T00:50:16.618Z,1.00
2022-08-22T00:52:58.523Z,0.97
2022-08-22T00:55:42.060Z,1.10
2022-08-22T00:58:46.410Z,1.27
2022-08-22T01:01:15.748Z,1.10
2022-08-22T01:03:56.312Z,1.40
2022-08-22T01:06:35.433Z,1.00
2022-08-22T01:09:08.657Z,1.17
2022-08-22T01:11:52.004Z,1.33
2022-08-22T01:14:34.398Z,0.90
2022-08-22T01:17:37.771Z,0.90
2022-08-22T01:20:29.421Z,1.80
2022-08-22T01:23:24.705Z,1.10
2022-08-22T01:26:41.751Z,1.03
2022-08-22T01:29:36.152Z,1.70
2022-08-22T01:32:47.016Z,1.23
2022-08-22T01:35:38.257Z,0.93
2022-08-22T01:38:27.141Z,1.17
2022-08-22T01:41:14.141Z,0.90
2022-08-22T01:44:04.637Z,0.97
2022-08-22T01:46:36.589Z,1.33
2022-08-22T01:49:12.400Z,1.00
2022-08-22T01:51:47.109Z,1.10
2022-08-22T01:54:24.784Z,0.97
2022-08-22T01:56:52.532Z,1.00
2022-08-22T01:59:27.596Z,1.07
2022-08-22T02:02:10.932Z,1.00
2022-08-22T02:04:45.351Z,1.10
2022-08-22T02:07:19.571Z,0.90
2022-08-22T02:09:51.975Z,1.20
2022-08-22T02:12:27.197Z,1.23
2022-08-22T02:15:03.024Z,1.07
2022-08-22T02:17:33.707Z,1.00
2022-08-22T02:20:05.743Z,0.90
2022-08-22T02:22:44.661Z,1.23
2022-08-22T02:25:16.589Z,1.30
2022-08-22T02:27:53.911Z,1.43
2022-08-22T02:30:23.571Z,1.27
2022-08-22T02:32:58.839Z,1.00
2022-08-22T02:35:31.066Z,1.00
2022-08-22T02:38:07.205Z,1.10
2022-08-22T02:40:40.084Z,1.40
2022-08-22T02:43:13.522Z,1.00
2022-08-22T02:45:45.278Z,1.37
2022-08-22T02:48:19.956Z,1.00
2022-08-22T02:50:53.024Z,1.40
2022-08-22T02:53:29.764Z,1.00
2022-08-22T02:56:01.783Z,1.00
2022-08-22T02:58:37.864Z,1.00
2022-08-22T03:01:19.662Z,1.00
2022-08-22T03:03:48.006Z,1.00
2022-08-22T03:06:35.997Z,1.20
2022-08-22T03:09:09.726Z,1.30
2022-08-22T03:11:39.986Z,0.87
2022-08-22T03:14:10.816Z,0.90
2022-08-22T03:16:41.955Z,2.70
2022-08-22T03:19:18.917Z,1.13
2022-08-22T03:21:49.363Z,1.10
2022-08-22T03:24:23.911Z,1.20
2022-08-22T03:26:53.694Z,1.23
2022-08-22T03:29:23.721Z,1.33
2022-08-22T03:32:10.290Z,1.30
2022-08-22T03:34:38.287Z,1.07
2022-08-22T03:37:12.636Z,1.17
2022-08-22T03:39:49.868Z,1.30
2022-08-22T03:43:01.329Z,1.40
2022-08-22T03:46:03.232Z,2.13
2022-08-22T03:48:53.428Z,1.10
2022-08-22T03:51:33.130Z,1.10
2022-08-22T03:54:12.745Z,1.10
2022-08-22T03:57:09.484Z,1.00
2022-08-22T03:59:59.062Z,1.30
2022-08-22T04:02:44.327Z,1.10
2022-08-22T04:05:36.653Z,3.83
2022-08-22T04:08:35.339Z,1.30
2022-08-22T04:11:30.371Z,1.50
2022-08-22T04:14:24.855Z,1.53
2022-08-22T04:17:18.488Z,1.23
2022-08-22T04:20:09.586Z,1.17
2022-08-22T04:23:14.537Z,1.10
2022-08-22T04:25:43.600Z,0.80
2022-08-22T04:28:14.552Z,1.50
2022-08-22T04:30:45.383Z,1.43
2022-08-22T04:33:18.958Z,1.60
2022-08-22T04:35:55.136Z,1.03
2022-08-22T04:38:28.211Z,1.17
2022-08-22T04:41:01.381Z,1.10
2022-08-22T04:43:37.083Z,1.20
2022-08-22T04:46:11.225Z,1.13
2022-08-22T04:48:43.993Z,1.17
2022-08-22T04:51:16.220Z,1.10
2022-08-22T04:53:57.260Z,1.10
2022-08-22T04:56:31.849Z,1.33
2022-08-22T04:59:01.329Z,2.17
2022-08-22T05:01:39.915Z,2.13
2022-08-22T05:04:09.801Z,1.63
2022-08-22T05:06:40.008Z,1.40
2022-08-22T05:09:12.967Z,1.73
2022-08-22T05:11:46.331Z,1.33
2022-08-22T05:14:17.935Z,1.50
2022-08-22T05:16:50.329Z,1.47
2022-08-22T05:19:28.435Z,1.37
2022-08-22T05:21:58.935Z,1.30
2022-08-22T05:24:30.077Z,1.70
2022-08-22T05:26:58.896Z,1.33
2022-08-22T05:29:30.064Z,1.33
2022-08-22T05:32:01.753Z,1.50
2022-08-22T05:34:33.363Z,1.60
2022-08-22T05:37:08.081Z,1.50
2022-08-22T05:39:37.981Z,1.10
2022-08-22T05:42:06.784Z,1.63
2022-08-22T05:44:36.592Z,1.47
2022-08-22T05:47:13.101Z,1.50
2022-08-22T05:49:43.419Z,1.30
2022-08-22T05:52:31.671Z,1.10
2022-08-22T05:55:03.840Z,1.30
2022-08-22T05:57:33.126Z,1.90
2022-08-22T06:00:05.931Z,1.20
2022-08-22T06:02:45.153Z,1.10
2022-08-22T06:05:13.268Z,1.40
2022-08-22T06:07:43.227Z,1.57
2022-08-22T06:10:18.866Z,1.47
2022-08-22T06:12:51.836Z,1.53
2022-08-22T06:15:23.043Z,1.20
2022-08-22T06:17:55.089Z,1.10
2022-08-22T06:20:26.300Z,1.20
2022-08-22T06:22:58.740Z,1.37
2022-08-22T06:25:27.945Z,2.10
2022-08-22T06:27:56.849Z,1.50
2022-08-22T06:30:27.412Z,1.47
2022-08-22T06:33:01.024Z,1.53
2022-08-22T06:35:51.100Z,1.23
2022-08-22T06:38:19.804Z,1.30
2022-08-22T06:40:47.495Z,0.97
2022-08-22T06:43:15.379Z,1.30
2022-08-22T06:45:43.206Z,1.70
2022-08-22T06:48:18.211Z,1.80
2022-08-22T06:50:49.698Z,1.60
2022-08-22T06:53:19.932Z,1.50
2022-08-22T06:55:50.155Z,1.50
2022-08-22T06:58:19.805Z,1.43
2022-08-22T07:00:53.555Z,1.70
2022-08-22T07:03:39.928Z,1.20
2022-08-22T07:06:07.753Z,1.67
2022-08-22T07:08:39.061Z,1.10
2022-08-22T07:11:11.322Z,1.33
2022-08-22T07:13:41.131Z,1.20
2022-08-22T07:16:10.869Z,1.20
2022-08-22T07:18:50.755Z,1.17
2022-08-22T07:21:25.908Z,1.33
2022-08-22T07:23:54.770Z,1.80
2022-08-22T07:26:41.751Z,1.50
2022-08-22T07:29:19.204Z,1.77
2022-08-22T07:31:51.482Z,1.60
2022-08-22T07:34:28.469Z,1.40
2022-08-22T07:37:00.138Z,1.70
2022-08-22T07:39:31.608Z,1.40
2022-08-22T07:42:07.866Z,1.80
2022-08-22T07:44:39.402Z,1.60
2022-08-22T07:47:10.717Z,1.53
2022-08-22T07:49:49.728Z,1.40
2022-08-22T07:52:18.205Z,1.80
2022-08-22T07:54:48.602Z,1.90
2022-08-22T07:57:18.556Z,1.83
2022-08-22T07:59:48.587Z,2.00
2022-08-22T08:02:17.414Z,2.03
2022-08-22T08:04:49.651Z,1.30
2022-08-22T08:07:18.845Z,2.30
2022-08-22T08:09:51.833Z,1.73
2022-08-22T08:12:21.885Z,2.23
2022-08-22T08:14:53.449Z,2.30
2022-08-22T08:17:27.776Z,2.10
2022-08-22T08:19:59.955Z,2.17
2022-08-22T08:22:28.447Z,2.83
2022-08-22T08:24:57.820Z,2.40
2022-08-22T08:27:45.125Z,2.70
2022-08-22T08:30:21.933Z,2.47
2022-08-22T08:32:59.554Z,2.67
2022-08-22T08:36:01.952Z,2.47
2022-08-22T08:38:33.285Z,2.40
2022-08-22T08:41:34.403Z,3.13
2022-08-22T08:44:08.238Z,2.53
2022-08-22T08:46:55.517Z,3.17
2022-08-22T08:49:51.456Z,2.33
2022-08-22T08:52:43.161Z,3.40
2022-08-22T08:55:22.841Z,3.20
2022-08-22T08:58:11.757Z,2.87
2022-08-22T09:00:59.313Z,3.20
2022-08-22T09:03:51.493Z,3.47
2022-08-22T09:06:37.136Z,3.10
2022-08-22T09:09:25.946Z,2.83
2022-08-22T09:12:14.411Z,2.70
2022-08-22T09:15:03.272Z,4.43
2022-08-22T09:18:04.408Z,3.20
2022-08-22T09:20:48.127Z,2.53
2022-08-22T09:23:37.601Z,3.00
2022-08-22T09:26:11.032Z,4.30
2022-08-22T09:28:40.475Z,3.20
2022-08-22T09:31:46.490Z,2.47
2022-08-22T09:34:14.552Z,2.90
2022-08-22T09:37:07.762Z,2.43
2022-08-22T09:39:39.176Z,2.63
2022-08-22T09:42:15.107Z,2.60
2022-08-22T09:44:50.847Z,2.43
2022-08-22T09:47:24.321Z,2.77
2022-08-22T09:49:59.829Z,2.80
2022-08-22T09:52:48.269Z,2.50
2022-08-22T09:55:35.576Z,2.70
2022-08-22T09:58:11.490Z,2.60
2022-08-22T10:00:44.949Z,2.63
2022-08-22T10:03:18.337Z,2.80
2022-08-22T10:05:47.971Z,2.40
2022-08-22T10:08:26.335Z,3.03
2022-08-22T10:11:07.630Z,2.53
2022-08-22T10:13:48.031Z,2.70
2022-08-22T10:16:29.792Z,2.13
2022-08-22T10:19:09.239Z,2.23
2022-08-22T10:21:42.724Z,2.10
2022-08-22T10:24:25.720Z,1.67
2022-08-22T10:26:55.877Z,2.03
2022-08-22T10:29:41.864Z,2.30
2022-08-22T10:32:19.317Z,1.83
2022-08-22T10:34:57.737Z,2.23
2022-08-22T10:37:30.796Z,2.10
2022-08-22T10:40:04.776Z,3.20
2022-08-22T10:42:35.497Z,2.10
2022-08-22T10:45:23.678Z,1.83
2022-08-22T10:48:24.194Z,2.47
2022-08-22T10:50:58.006Z,2.40
2022-08-22T10:53:34.970Z,2.00
2022-08-22T10:56:12.765Z,1.60
2022-08-22T10:58:44.853Z,1.90
2022-08-22T11:01:37.645Z,2.07
2022-08-22T11:04:12.985Z,2.70
2022-08-22T11:06:45.228Z,5.80
2022-08-22T11:09:22.996Z,1.70
2022-08-22T11:11:57.372Z,3.77
2022-08-22T11:14:54.374Z,2.30
2022-08-22T11:17:40.754Z,1.90
2022-08-22T11:20:21.228Z,3.83
2022-08-22T11:23:00.301Z,2.53
2022-08-22T11:25:38.762Z,4.90
2022-08-22T11:28:21.183Z,2.47
2022-08-22T11:30:58.988Z,1.43
2022-08-22T11:33:39.081Z,1.93
2022-08-22T11:36:26.179Z,1.73
2022-08-22T11:39:13.822Z,1.67
2022-08-22T11:41:52.190Z,1.67
2022-08-22T11:44:25.580Z,2.00
2022-08-22T11:46:58.476Z,1.40
2022-08-22T11:49:39.366Z,2.10
2022-08-22T11:52:12.366Z,1.50
2022-08-22T11:55:21.559Z,1.90
2022-08-22T11:57:57.741Z,1.37
2022-08-22T12:00:51.455Z,1.70
2022-08-22T12:04:19.286Z,2.10
2022-08-22T12:06:56.220Z,1.60
2022-08-22T12:11:30.089Z,1.90
2022-08-22T12:13:02.173Z,2.03
2022-08-22T12:19:17.213Z,1.43
2022-08-22T12:22:58.152Z,1.90
2022-08-22T12:25:57.843Z,1.67
2022-08-22T12:28:42.507Z,1.33
2022-08-22T12:31:44.633Z,1.93
2022-08-22T12:35:14.501Z,1.77
2022-08-22T12:38:26.611Z,1.57
2022-08-22T12:41:28.250Z,1.53
2022-08-22T12:44:34.516Z,1.63
2022-08-22T12:47:20.505Z,2.00
2022-08-22T12:50:21.878Z,1.57
2022-08-22T12:54:15.411Z,1.43
2022-08-22T13:05:56.798Z,1.80
2022-08-22T13:08:51.946Z,2.10
2022-08-22T13:11:23.214Z,1.10
2022-08-22T13:13:56.024Z,1.53
2022-08-22T13:16:25.668Z,1.40
2022-08-22T13:18:56.621Z,1.50
2022-08-22T13:21:31.440Z,1.30
2022-08-22T13:24:01.121Z,1.10
2022-08-22T13:26:33.790Z,1.90
2022-08-22T13:31:55.346Z,1.73
2022-08-22T13:34:34.839Z,1.80
2022-08-22T13:37:08.045Z,1.50
2022-08-22T13:39:39.814Z,1.53
2022-08-22T13:42:14.296Z,1.13
2022-08-22T13:44:51.365Z,1.27
2022-08-22T13:47:21.461Z,1.60
2022-08-22T13:49:53.653Z,1.20
2022-08-22T13:52:29.295Z,1.87
2022-08-22T13:55:01.681Z,1.93
2022-08-22T13:57:33.350Z,1.50
2022-08-22T14:00:08.747Z,1.40
2022-08-22T14:02:56.491Z,1.80
2022-08-22T14:05:33.023Z,1.43
2022-08-22T14:08:13.301Z,1.43
2022-08-22T14:10:45.407Z,1.77
2022-08-22T14:13:36.780Z,2.03
2022-08-22T14:16:06.958Z,1.73
2022-08-22T14:18:45.647Z,1.97
2022-08-22T14:21:27.275Z,1.60
2022-08-22T14:23:57.292Z,1.53
2022-08-22T14:26:33.020Z,1.53
2022-08-22T14:29:08.222Z,1.80
2022-08-22T14:31:36.356Z,1.43
2022-08-22T14:34:07.610Z,1.70
2022-08-22T14:36:46.213Z,1.43
2022-08-22T14:39:22.636Z,1.83
2022-08-22T14:41:55.740Z,1.60
2022-08-22T14:44:27.404Z,1.60
2022-08-22T14:46:56.743Z,1.57
2022-08-22T14:49:36.333Z,1.33
2022-08-22T14:52:11.014Z,1.40
2022-08-22T14:54:48.015Z,1.50
2022-08-22T14:57:20.767Z,1.60
2022-08-22T14:59:50.970Z,1.67
2022-08-22T15:02:25.521Z,1.70
2022-08-22T15:04:54.936Z,1.50
2022-08-22T15:07:25.895Z,1.53
2022-08-22T15:09:56.321Z,1.70
2022-08-22T15:12:27.632Z,1.87
2022-08-22T15:14:57.488Z,1.60
2022-08-22T15:17:40.426Z,1.90
2022-08-22T15:20:27.969Z,1.60
2022-08-22T15:23:01.892Z,1.20
2022-08-22T15:25:33.374Z,1.30
2022-08-22T15:28:53.932Z,1.83
2022-08-22T15:31:48.875Z,1.47
2022-08-22T15:35:17.847Z,1.80
2022-08-22T15:42:38.243Z,1.43
2022-08-22T15:45:26.500Z,1.10
2022-08-22T15:48:29.150Z,1.00
2022-08-22T15:51:20.948Z,1.40
2022-08-22T15:54:28.705Z,1.10
2022-08-22T15:57:51.484Z,1.27
2022-08-22T16:00:34.001Z,1.70
2022-08-22T16:03:15.530Z,1.20
2022-08-22T16:06:02.455Z,1.47
2022-08-22T16:09:18.682Z,1.50
2022-08-22T16:12:31.715Z,1.43
2022-08-22T16:15:56.843Z,1.43
2022-08-22T16:19:08.088Z,1.30
2022-08-22T16:23:05.300Z,1.10
2022-08-22T16:26:23.788Z,1.53
2022-08-22T16:29:37.672Z,1.70
2022-08-22T16:32:17.831Z,1.30
2022-08-22T16:34:59.651Z,1.37
2022-08-22T16:38:15.934Z,1.83
2022-08-22T16:41:14.467Z,1.70
2022-08-22T16:44:37.592Z,1.10
2022-08-22T16:47:30.377Z,1.50
2022-08-22T16:50:10.514Z,1.13
2022-08-22T16:53:14.042Z,1.40
2022-08-22T16:56:46.099Z,1.50
2022-08-22T16:59:43.350Z,1.23
2022-08-22T17:03:01.261Z,1.67
2022-08-22T17:06:43.826Z,1.40
2022-08-22T17:09:52.624Z,1.30
2022-08-22T17:13:03.781Z,1.50
2022-08-22T17:16:07.904Z,2.17
2022-08-22T17:18:52.334Z,1.50
2022-08-22T17:21:53.840Z,1.50
2022-08-22T17:24:31.873Z,1.50
2022-08-22T17:27:09.547Z,1.53
2022-08-22T17:30:14.887Z,1.53
2022-08-22T17:33:16.665Z,1.03
2022-08-22T17:36:21.087Z,1.23
2022-08-22T17:39:38.819Z,1.50
2022-08-22T17:43:09.928Z,1.20
2022-08-22T17:45:43.550Z,1.70
2022-08-22T17:48:43.081Z,1.60
2022-08-22T17:51:26.514Z,2.10
2022-08-22T17:55:06.769Z,3.27
2022-08-22T17:57:58.205Z,2.10
2022-08-22T18:01:12.298Z,2.30
2022-08-22T18:04:31.834Z,2.40
2022-08-22T18:07:41.270Z,2.27
2022-08-22T18:10:32.781Z,2.13
2022-08-22T18:13:18.372Z,2.43
2022-08-22T18:16:37.672Z,2.00
2022-08-22T18:19:34.751Z,2.17
2022-08-22T18:26:08.825Z,3.47
2022-08-22T18:31:52.771Z,5.00
2022-08-22T18:34:31.185Z,3.77
2022-08-22T18:37:02.149Z,2.83
2022-08-22T18:39:32.783Z,2.73
2022-08-22T18:42:05.635Z,2.87
2022-08-22T18:44:37.931Z,2.47
2022-08-22T18:47:41.892Z,2.00
2022-08-22T18:50:41.931Z,1.70
2022-08-22T18:54:30.241Z,2.33
2022-08-22T18:57:10.790Z,2.53
2022-08-22T19:00:13.666Z,2.30
2022-08-22T19:03:19.215Z,2.70
2022-08-22T19:06:46.118Z,1.90
2022-08-22T19:09:53.696Z,2.20
2022-08-22T19:13:09.055Z,2.77
2022-08-22T19:16:07.584Z,2.30
2022-08-22T19:22:51.073Z,2.50
2022-08-22T19:25:42.219Z,2.23
2022-08-22T19:28:48.869Z,2.77
2022-08-22T19:31:47.168Z,2.80
2022-08-22T19:35:02.046Z,2.17
2022-08-22T19:41:51.278Z,2.33
2022-08-22T19:59:18.376Z,3.37
2022-08-22T20:12:56.026Z,4.23
2022-08-22T20:15:58.537Z,3.00
2022-08-22T20:20:16.315Z,3.80
2022-08-22T20:22:57.212Z,4.50
2022-08-22T20:25:55.046Z,4.83
2022-08-22T20:28:50.790Z,4.50
2022-08-22T20:31:27.854Z,3.57
2022-08-22T20:34:40.886Z,2.97
2022-08-22T20:37:35.983Z,3.10
2022-08-22T20:41:11.703Z,2.43
2022-08-22T20:44:47.549Z,2.10
2022-08-22T20:48:04.946Z,2.10
2022-08-22T20:51:25.459Z,1.83
2022-08-22T20:54:21.603Z,1.83
2022-08-22T20:57:46.130Z,2.90
2022-08-22T21:01:04.154Z,4.10
2022-08-22T21:04:12.312Z,4.13
2022-08-22T21:07:54.572Z,4.30
2022-08-22T21:11:35.069Z,3.43
2022-08-22T21:14:16.886Z,5.87
2022-08-22T21:17:35.578Z,5.40
2022-08-22T21:20:27.928Z,5.53
2022-08-22T21:23:41.774Z,5.00
2022-08-22T21:26:53.880Z,4.83
2022-08-22T21:29:40.225Z,5.33
2022-08-22T21:40:00.429Z,5.67
2022-08-22T21:43:21.101Z,6.03
2022-08-22T21:46:01.122Z,5.67
2022-08-22T21:48:49.612Z,6.20
2022-08-22T21:55:21.138Z,2.27
2022-08-22T21:58:37.491Z,2.40
2022-08-22T22:02:02.703Z,1.60
2022-08-22T22:04:41.036Z,1.80
2022-08-22T22:07:23.793Z,1.60
2022-08-22T22:10:01.774Z,1.50
2022-08-22T22:16:56.911Z,1.77
2022-08-22T22:19:39.663Z,1.87
2022-08-22T22:22:49.966Z,1.40
2022-08-22T22:25:47.104Z,2.00
2022-08-22T22:29:14.876Z,1.43
2022-08-22T22:32:19.786Z,1.83
2022-08-22T22:38:21.856Z,1.93
2022-08-22T22:41:29.879Z,1.60
2022-08-22T22:45:31.130Z,1.50
2022-08-22T22:47:49.222Z,1.80
2022-08-22T22:50:49.663Z,1.40
